Time;durP1;ratioP1;P1;durP2;ratioP2;P2;SDS_P1;SDS_P2;PMS_P1;PMS_P2;Temp;Humidity;BMP_temperature;BMP_pressure;BME280_temperature;BME280_humidity;BME280_pressure;Samples;Min_cycle;Max_cycle;Signal;HPM_P1;HPM_P2
2023/01/03 00:01:30;;;;;;;4.77;3.57;;;11.10;99.90;;;;;;4972401;28;20458;-74
2023/01/03 00:03:57;;;;;;;4.90;4.07;;;11.10;99.90;;;;;;4977925;28;21054;-74
2023/01/03 00:06:28;;;;;;;4.90;3.80;;;11.10;99.90;;;;;;4981868;28;20481;-73
2023/01/03 00:08:57;;;;;;;4.90;4.10;;;11.10;99.90;;;;;;4989698;28;20517;-73
2023/01/03 00:14:17;;;;;;;6.30;3.77;;;11.00;99.90;;;;;;4971231;28;20453;-72
2023/01/03 00:16:47;;;;;;;5.10;3.63;;;11.00;99.90;;;;;;4989799;28;20485;-72
2023/01/03 00:19:16;;;;;;;5.27;3.83;;;11.00;99.90;;;;;;4990541;28;20461;-73
2023/01/03 00:21:44;;;;;;;4.87;3.40;;;11.00;99.90;;;;;;4990496;28;20472;-73
2023/01/03 00:24:10;;;;;;;5.40;3.63;;;11.00;99.90;;;;;;4988487;28;20931;-73
2023/01/03 00:26:39;;;;;;;5.00;3.57;;;11.00;99.90;;;;;;4976521;28;20512;-73
2023/01/03 00:29:07;;;;;;;3.50;2.77;;;11.00;99.90;;;;;;4972969;28;20408;-73
2023/01/03 00:31:44;;;;;;;7.37;3.83;;;11.00;99.90;;;;;;4986479;28;20419;-73
2023/01/03 00:34:10;;;;;;;4.50;3.37;;;11.00;99.90;;;;;;4992848;28;20495;-73
2023/01/03 00:36:39;;;;;;;5.13;3.70;;;11.00;99.90;;;;;;4971663;28;20468;-74
2023/01/03 00:39:06;;;;;;;4.93;3.40;;;11.00;99.90;;;;;;4969460;28;20431;-74
2023/01/03 00:41:35;;;;;;;4.13;3.63;;;10.90;99.90;;;;;;4971153;28;20472;-74
2023/01/03 00:44:01;;;;;;;4.30;3.90;;;10.90;99.90;;;;;;4985855;28;20481;-73
2023/01/03 00:46:27;;;;;;;4.57;4.00;;;10.90;99.90;;;;;;4990227;28;20473;-73
2023/01/03 00:48:53;;;;;;;4.83;3.30;;;10.90;99.90;;;;;;4987751;28;20429;-74
2023/01/03 00:51:25;;;;;;;5.27;3.60;;;10.90;99.90;;;;;;4990788;28;20420;-74
2023/01/03 00:53:57;;;;;;;5.10;4.43;;;10.90;99.90;;;;;;4989792;28;20511;-74
2023/01/03 00:56:26;;;;;;;5.10;3.30;;;10.90;99.90;;;;;;4987985;28;20440;-74
2023/01/03 00:58:55;;;;;;;4.23;3.33;;;10.90;99.90;;;;;;4994122;28;20636;-74
2023/01/03 01:01:28;;;;;;;4.40;3.27;;;10.90;99.90;;;;;;4994526;28;20429;-74
2023/01/03 01:04:02;;;;;;;5.60;3.50;;;10.90;99.90;;;;;;4959181;28;20505;-73
2023/01/03 01:06:50;;;;;;;5.00;3.43;;;10.90;99.90;;;;;;4962515;28;20429;-73
2023/01/03 01:09:19;;;;;;;7.00;3.27;;;10.90;99.90;;;;;;4974288;28;20415;-73
2023/01/03 01:11:47;;;;;;;3.70;3.30;;;10.80;99.90;;;;;;4992022;28;20442;-73
2023/01/03 01:14:20;;;;;;;6.13;3.53;;;10.80;99.90;;;;;;4993852;28;21001;-74
2023/01/03 01:16:58;;;;;;;5.10;3.13;;;10.80;99.90;;;;;;4977851;28;20517;-74
2023/01/03 01:19:31;;;;;;;5.37;3.60;;;10.80;99.90;;;;;;4988507;28;20438;-74
2023/01/03 01:21:57;;;;;;;4.60;3.40;;;10.80;99.90;;;;;;4987559;28;20552;-74
2023/01/03 01:24:24;;;;;;;4.43;3.27;;;10.80;99.90;;;;;;4963562;28;20446;-74
2023/01/03 01:26:50;;;;;;;6.00;3.23;;;10.80;99.90;;;;;;4983775;28;20430;-73
2023/01/03 01:29:20;;;;;;;4.00;3.23;;;10.80;99.90;;;;;;5002911;23;20558;-71
2023/01/03 01:31:49;;;;;;;4.83;3.37;;;10.80;99.90;;;;;;5004989;28;20907;-71
2023/01/03 01:34:16;;;;;;;4.30;3.00;;;10.80;99.90;;;;;;4980368;28;20464;-71
2023/01/03 01:36:43;;;;;;;4.73;3.10;;;10.80;99.90;;;;;;4959311;28;20483;-71
2023/01/03 01:39:20;;;;;;;4.93;3.60;;;10.80;99.90;;;;;;4959472;28;20967;-71
2023/01/03 01:44:48;;;;;;;4.60;3.50;;;10.80;99.90;;;;;;4959728;28;20820;-71
2023/01/03 01:47:31;;;;;;;4.30;2.83;;;10.70;99.90;;;;;;4975359;28;20486;-71
2023/01/03 01:50:23;;;;;;;4.60;2.60;;;10.70;99.90;;;;;;4976370;28;20446;-71
2023/01/03 01:53:08;;;;;;;5.33;2.87;;;10.70;99.90;;;;;;4959318;28;20962;-71
2023/01/03 01:55:50;;;;;;;6.23;2.80;;;10.70;99.90;;;;;;4971270;28;20848;-71
2023/01/03 01:58:21;;;;;;;4.10;2.83;;;10.70;99.90;;;;;;4974788;28;20452;-71
2023/01/03 02:00:53;;;;;;;5.70;2.80;;;10.70;99.90;;;;;;4975166;28;20429;-71
2023/01/03 02:03:19;;;;;;;3.97;2.90;;;10.70;99.90;;;;;;4974764;28;20446;-71
2023/01/03 02:05:52;;;;;;;3.67;2.80;;;10.70;99.90;;;;;;4958969;28;20422;-71
2023/01/03 02:08:24;;;;;;;3.93;2.93;;;10.70;99.90;;;;;;4975693;28;20502;-71
2023/01/03 02:11:18;;;;;;;3.60;2.43;;;10.70;99.90;;;;;;4974051;28;20489;-71
2023/01/03 02:14:08;;;;;;;3.93;2.90;;;10.70;99.90;;;;;;4958820;28;20508;-71
2023/01/03 02:16:50;;;;;;;4.10;2.70;;;10.60;99.90;;;;;;4974424;28;20450;-71
2023/01/03 02:19:35;;;;;;;4.40;2.40;;;10.60;99.90;;;;;;4974853;28;20465;-71
2023/01/03 02:22:19;;;;;;;5.17;2.83;;;10.60;99.90;;;;;;4974582;28;20430;-71
2023/01/03 02:25:42;;;;;;;6.60;2.73;;;10.60;99.90;;;;;;4975567;28;20472;-71
2023/01/03 02:28:18;;;;;;;4.13;2.73;;;10.60;99.90;;;;;;4986325;28;20461;-71
2023/01/03 02:31:03;;;;;;;3.03;2.20;;;10.60;99.90;;;;;;4975319;28;20507;-71
2023/01/03 02:33:40;;;;;;;3.43;2.83;;;10.60;99.90;;;;;;4958489;28;20434;-71
2023/01/03 02:36:40;;;;;;;3.53;2.47;;;10.60;99.90;;;;;;4975673;28;20425;-71
2023/01/03 02:39:24;;;;;;;2.90;2.60;;;10.60;99.90;;;;;;4975482;28;20480;-71
2023/01/03 02:45:07;;;;;;;7.70;2.87;;;10.50;99.90;;;;;;4974164;28;20472;-71
2023/01/03 02:47:44;;;;;;;2.57;2.27;;;10.50;99.90;;;;;;4958163;28;20433;-71
2023/01/03 02:50:13;;;;;;;3.33;2.90;;;10.50;99.90;;;;;;4975417;28;20903;-71
2023/01/03 02:52:43;;;;;;;4.80;2.30;;;10.50;99.90;;;;;;4957986;28;20945;-71
2023/01/03 02:55:16;;;;;;;3.03;2.10;;;10.50;99.90;;;;;;4973647;28;20438;-71
2023/01/03 02:57:51;;;;;;;3.90;2.50;;;10.50;99.90;;;;;;4973845;28;21006;-71
2023/01/03 03:00:30;;;;;;;3.40;2.70;;;10.50;99.90;;;;;;4974918;28;20513;-71
2023/01/03 03:03:09;;;;;;;3.30;2.00;;;10.50;99.90;;;;;;4945442;28;21022;-71
2023/01/03 03:05:48;;;;;;;4.77;2.87;;;10.50;99.90;;;;;;4973896;28;20445;-71
2023/01/03 03:08:16;;;;;;;2.93;2.50;;;10.50;99.90;;;;;;4975934;28;21066;-71
2023/01/03 03:14:03;;;;;;;4.07;2.77;;;10.50;99.90;;;;;;4954441;28;20458;-71
2023/01/03 03:16:50;;;;;;;2.90;2.70;;;10.40;99.90;;;;;;4949604;28;20457;-71
2023/01/03 03:25:29;;;;;;;2.50;2.30;;;10.40;99.90;;;;;;4963449;28;20410;-71
2023/01/03 03:30:50;;;;;;;5.03;3.13;;;10.40;99.90;;;;;;4983342;28;20484;-71
2023/01/03 03:33:23;;;;;;;3.40;3.10;;;10.30;99.90;;;;;;4973241;28;20450;-71
2023/01/03 03:36:13;;;;;;;2.83;2.30;;;10.30;99.90;;;;;;4958993;28;20429;-71
2023/01/03 03:38:42;;;;;;;4.07;2.73;;;10.30;99.90;;;;;;4973182;28;20449;-71
2023/01/03 03:47:33;;;;;;;5.77;2.83;;;10.30;99.90;;;;;;4974367;28;21039;-71
2023/01/03 03:50:19;;;;;;;4.80;2.83;;;10.30;99.90;;;;;;4973846;28;20436;-71
2023/01/03 03:52:50;;;;;;;4.50;2.83;;;10.30;99.90;;;;;;4957227;28;21039;-71
2023/01/03 03:55:29;;;;;;;3.73;3.00;;;10.30;99.90;;;;;;4956812;28;20485;-71
2023/01/03 03:58:05;;;;;;;4.50;3.00;;;10.30;99.90;;;;;;4974044;28;20446;-71
2023/01/03 04:00:37;;;;;;;3.90;2.57;;;10.30;99.90;;;;;;4973865;28;20398;-71
2023/01/03 04:03:05;;;;;;;4.53;2.23;;;10.30;99.90;;;;;;4972903;28;20446;-71
2023/01/03 04:05:38;;;;;;;5.13;3.00;;;10.30;99.90;;;;;;4957204;28;20418;-71
2023/01/03 04:08:07;;;;;;;3.57;2.97;;;10.30;99.90;;;;;;4972840;28;20434;-71
2023/01/03 04:10:36;;;;;;;3.50;3.13;;;10.30;99.90;;;;;;4957175;28;20437;-71
2023/01/03 04:13:03;;;;;;;3.43;3.13;;;10.20;99.90;;;;;;4971580;28;20444;-71
2023/01/03 04:15:32;;;;;;;4.77;2.80;;;10.20;99.90;;;;;;4958795;28;20429;-71
2023/01/03 04:18:00;;;;;;;3.83;2.73;;;10.20;99.90;;;;;;4972415;28;20556;-71
2023/01/03 04:20:29;;;;;;;3.40;2.80;;;10.20;99.90;;;;;;4954722;29;20467;-71
2023/01/03 04:22:57;;;;;;;4.00;2.70;;;10.20;99.90;;;;;;4953304;28;20435;-71
2023/01/03 04:25:27;;;;;;;3.90;3.03;;;10.20;99.90;;;;;;4971532;28;20442;-71
2023/01/03 04:27:54;;;;;;;3.30;2.87;;;10.20;99.90;;;;;;4944101;28;21007;-71
2023/01/03 04:30:22;;;;;;;4.30;2.87;;;10.20;99.90;;;;;;4956670;28;20537;-71
2023/01/03 04:32:51;;;;;;;4.60;3.43;;;10.20;99.90;;;;;;4973304;28;20438;-71
2023/01/03 04:35:20;;;;;;;4.70;3.03;;;10.20;99.90;;;;;;4972685;28;20433;-71
2023/01/03 04:37:50;;;;;;;3.10;2.80;;;10.20;99.90;;;;;;4972588;28;20588;-71
2023/01/03 04:40:16;;;;;;;3.13;2.80;;;10.20;99.90;;;;;;4950898;29;20437;-71
2023/01/03 04:45:30;;;;;;;3.77;3.47;;;10.10;99.90;;;;;;4946306;28;20467;-71
2023/01/03 04:47:56;;;;;;;4.87;3.10;;;10.10;99.90;;;;;;4973814;28;20757;-71
2023/01/03 04:50:22;;;;;;;5.00;3.00;;;10.10;99.90;;;;;;4956116;28;20441;-71
2023/01/03 04:52:48;;;;;;;3.50;3.20;;;10.10;99.90;;;;;;4972392;28;20482;-71
2023/01/03 04:55:17;;;;;;;3.77;3.10;;;10.10;99.90;;;;;;4972454;28;20860;-71
2023/01/03 04:57:45;;;;;;;3.47;2.40;;;10.10;99.90;;;;;;4972263;28;20449;-71
2023/01/03 05:00:14;;;;;;;4.50;2.83;;;10.10;99.90;;;;;;4973344;28;20460;-71
2023/01/03 05:02:42;;;;;;;4.83;3.50;;;10.00;99.90;;;;;;4973110;28;20472;-71
2023/01/03 05:05:09;;;;;;;5.47;3.80;;;10.00;99.90;;;;;;4973536;28;20978;-71
2023/01/03 05:07:36;;;;;;;4.00;3.10;;;10.00;99.90;;;;;;4972157;28;20426;-71
2023/01/03 05:10:02;;;;;;;4.37;3.50;;;10.00;99.90;;;;;;4956178;28;20485;-71
2023/01/03 05:12:33;;;;;;;6.00;2.60;;;10.00;99.90;;;;;;4956441;28;20458;-71
2023/01/03 05:15:01;;;;;;;3.93;3.30;;;10.00;99.90;;;;;;4972332;28;20452;-71
2023/01/03 05:17:30;;;;;;;6.60;3.80;;;10.00;99.90;;;;;;4956386;28;20463;-71
2023/01/03 05:28:19;;;;;;;6.87;3.70;;;9.90;99.90;;;;;;4971912;28;20436;-70
2023/01/03 05:30:48;;;;;;;3.30;3.00;;;9.90;99.90;;;;;;4972253;28;20481;-70
2023/01/03 05:33:13;;;;;;;3.93;3.10;;;9.90;99.90;;;;;;4971970;28;20450;-70
2023/01/03 05:35:39;;;;;;;3.53;3.17;;;9.90;99.90;;;;;;4956102;28;20459;-70
2023/01/03 05:38:07;;;;;;;3.77;3.23;;;9.90;99.90;;;;;;4955726;28;20454;-70
2023/01/03 05:40:36;;;;;;;4.40;3.57;;;9.90;99.90;;;;;;4973165;28;20417;-70
2023/01/03 05:43:04;;;;;;;3.60;3.10;;;9.90;99.90;;;;;;4973400;28;20481;-70
2023/01/03 05:45:37;;;;;;;3.50;2.90;;;9.90;99.90;;;;;;4958968;28;20793;-70
2023/01/03 05:48:04;;;;;;;4.10;2.90;;;9.90;99.90;;;;;;4976903;28;20410;-70
2023/01/03 05:50:31;;;;;;;3.73;3.30;;;9.80;99.90;;;;;;4975889;28;20434;-70
2023/01/03 05:53:02;;;;;;;5.30;4.03;;;9.80;99.90;;;;;;4975611;28;20935;-70
2023/01/03 05:55:28;;;;;;;3.80;2.93;;;9.80;99.90;;;;;;4978959;28;20462;-70
2023/01/03 05:57:54;;;;;;;4.00;3.37;;;9.80;99.90;;;;;;4995268;28;20457;-70
2023/01/03 06:00:28;;;;;;;3.87;3.43;;;9.80;99.90;;;;;;4995177;28;20940;-70
2023/01/03 06:02:54;;;;;;;4.30;3.40;;;9.80;99.90;;;;;;4978766;28;20521;-70
2023/01/03 06:05:21;;;;;;;5.50;3.60;;;9.80;99.90;;;;;;4981180;28;20964;-70
2023/01/03 06:07:47;;;;;;;3.93;3.13;;;9.80;99.90;;;;;;4959451;28;20409;-70
2023/01/03 06:10:13;;;;;;;5.63;3.80;;;9.80;99.90;;;;;;4976640;28;20410;-70
2023/01/03 06:12:39;;;;;;;4.97;3.20;;;9.80;99.90;;;;;;4975297;28;20408;-70
2023/01/03 06:15:06;;;;;;;5.37;4.17;;;9.70;99.90;;;;;;4975251;28;20460;-70
2023/01/03 06:20:25;;;;;;;6.13;4.07;;;9.70;99.90;;;;;;4975281;28;20494;-70
2023/01/03 06:22:57;;;;;;;4.57;3.30;;;9.70;99.90;;;;;;4959285;28;20450;-70
2023/01/03 06:25:25;;;;;;;4.27;3.40;;;9.70;99.90;;;;;;4959053;28;20432;-70
2023/01/03 06:27:55;;;;;;;4.97;3.57;;;9.70;99.90;;;;;;4959644;28;20430;-70
2023/01/03 06:30:24;;;;;;;4.27;3.80;;;9.70;99.90;;;;;;4974833;28;20809;-70
2023/01/03 06:32:52;;;;;;;8.40;4.47;;;9.70;99.90;;;;;;4974669;28;20546;-70
2023/01/03 06:35:20;;;;;;;4.73;3.90;;;9.70;99.90;;;;;;4975136;28;20524;-70
2023/01/03 06:37:46;;;;;;;7.53;4.13;;;9.60;99.90;;;;;;4974040;28;20542;-70
2023/01/03 06:40:12;;;;;;;5.23;3.83;;;9.60;99.90;;;;;;4943235;28;20867;-70
2023/01/03 06:42:38;;;;;;;5.43;3.30;;;9.60;99.90;;;;;;4974789;28;20434;-70
2023/01/03 06:53:34;;;;;;;3.73;3.23;;;9.60;99.90;;;;;;4975622;28;20441;-70
2023/01/03 06:56:06;;;;;;;4.63;3.40;;;9.60;99.90;;;;;;4958201;28;20452;-69
2023/01/03 06:58:32;;;;;;;4.23;2.80;;;9.60;99.90;;;;;;4975701;28;20446;-70
2023/01/03 07:01:03;;;;;;;6.43;3.60;;;9.60;99.90;;;;;;4958693;28;20421;-71
2023/01/03 07:03:34;;;;;;;4.50;3.63;;;9.60;99.90;;;;;;4973638;28;20438;-71
2023/01/03 07:06:00;;;;;;;5.27;3.40;;;9.50;99.90;;;;;;4973610;28;20740;-71
2023/01/03 07:08:29;;;;;;;5.40;3.37;;;9.50;99.90;;;;;;4980603;28;20423;-71
2023/01/03 07:10:56;;;;;;;3.50;3.07;;;9.50;99.90;;;;;;4966037;28;20426;-72
2023/01/03 07:16:15;;;;;;;5.87;3.00;;;9.50;99.90;;;;;;4954498;28;20815;-71
2023/01/03 07:18:41;;;;;;;3.50;3.00;;;9.50;99.90;;;;;;4975123;28;20542;-70
2023/01/03 07:21:08;;;;;;;3.50;3.10;;;9.50;99.90;;;;;;4993182;28;20407;-72
2023/01/03 07:23:36;;;;;;;4.70;3.10;;;9.50;99.90;;;;;;4991097;28;20446;-71
2023/01/03 07:26:04;;;;;;;6.60;3.27;;;9.50;99.90;;;;;;4977191;28;20442;-71
2023/01/03 07:28:33;;;;;;;5.40;3.07;;;9.50;99.90;;;;;;4973643;28;20905;-71
2023/01/03 07:31:01;;;;;;;4.40;3.13;;;9.50;99.90;;;;;;4973359;28;20469;-72
2023/01/03 07:33:29;;;;;;;4.60;2.93;;;9.50;99.90;;;;;;4957563;28;20449;-72
2023/01/03 07:36:05;;;;;;;4.10;3.10;;;9.50;99.90;;;;;;4973568;28;20409;-71
2023/01/03 07:38:33;;;;;;;3.23;2.93;;;9.50;99.90;;;;;;4957131;28;20855;-71
2023/01/03 07:41:01;;;;;;;4.70;2.90;;;9.50;99.90;;;;;;4957415;28;20451;-72
2023/01/03 07:43:35;;;;;;;3.80;2.97;;;9.50;99.90;;;;;;4957612;28;21038;-71
2023/01/03 07:46:11;;;;;;;3.40;3.10;;;9.50;99.90;;;;;;4972902;28;20444;-71
2023/01/03 07:48:40;;;;;;;3.60;2.97;;;9.50;99.90;;;;;;4952801;28;20587;-71
2023/01/03 07:51:07;;;;;;;4.30;2.77;;;9.50;99.90;;;;;;4938165;29;20805;-72
2023/01/03 07:53:34;;;;;;;4.30;2.83;;;9.50;99.90;;;;;;4954173;28;20817;-71
2023/01/03 07:56:12;;;;;;;6.07;2.83;;;9.50;99.90;;;;;;4954173;29;20417;-72
2023/01/03 07:58:40;;;;;;;4.30;2.90;;;9.40;99.90;;;;;;4956871;28;20472;-72
2023/01/03 08:01:23;;;;;;;4.73;2.90;;;9.40;99.90;;;;;;4973017;28;20403;-71
2023/01/03 08:03:49;;;;;;;3.53;2.70;;;9.40;99.90;;;;;;4973188;28;20452;-71
2023/01/03 08:06:20;;;;;;;3.80;2.60;;;9.40;99.90;;;;;;4974133;28;20456;-72
2023/01/03 08:14:24;;;;;;;3.07;2.67;;;9.40;99.90;;;;;;4973118;28;20447;-72
2023/01/03 08:16:53;;;;;;;3.33;3.03;;;9.40;99.90;;;;;;4956913;28;20465;-71
2023/01/03 08:19:25;;;;;;;2.90;2.70;;;9.40;99.90;;;;;;4972878;28;20430;-71
2023/01/03 08:21:54;;;;;;;4.30;3.10;;;9.40;99.90;;;;;;4972973;28;20782;-71
2023/01/03 08:24:22;;;;;;;4.30;3.10;;;9.40;99.90;;;;;;4973177;28;20434;-72
2023/01/03 08:26:51;;;;;;;5.30;3.17;;;9.40;99.90;;;;;;4972688;28;20536;-71
2023/01/03 08:29:17;;;;;;;6.13;3.57;;;9.40;99.90;;;;;;4972863;28;20588;-71
2023/01/03 08:31:48;;;;;;;4.30;2.93;;;9.40;99.90;;;;;;4972408;28;20402;-71
2023/01/03 08:34:17;;;;;;;3.70;3.27;;;9.40;99.90;;;;;;4972651;28;20809;-72
2023/01/03 08:36:53;;;;;;;8.23;2.87;;;9.40;99.90;;;;;;4972892;28;20888;-71
2023/01/03 08:39:26;;;;;;;3.57;2.80;;;9.40;99.90;;;;;;4973807;28;21077;-71
2023/01/03 08:41:59;;;;;;;6.20;3.73;;;9.40;99.90;;;;;;4956634;28;20442;-71
2023/01/03 08:44:25;;;;;;;4.33;3.20;;;9.40;99.90;;;;;;4972685;28;20822;-71
2023/01/03 08:46:54;;;;;;;5.07;3.37;;;9.40;99.90;;;;;;4941017;28;20808;-71
2023/01/03 08:49:21;;;;;;;6.23;2.70;;;9.30;99.90;;;;;;4973698;28;20525;-71
2023/01/03 08:51:47;;;;;;;6.20;2.90;;;9.40;99.90;;;;;;4956639;28;20410;-72
2023/01/03 08:54:16;;;;;;;5.53;2.93;;;9.40;99.90;;;;;;4973742;28;20476;-71
2023/01/03 08:56:49;;;;;;;3.83;2.90;;;9.40;99.90;;;;;;4972503;28;20533;-72
2023/01/03 08:59:17;;;;;;;4.07;3.43;;;9.40;99.90;;;;;;4972748;28;20469;-71
2023/01/03 09:01:46;;;;;;;4.20;3.10;;;9.40;99.90;;;;;;4972547;28;20832;-71
2023/01/03 09:04:11;;;;;;;4.20;3.13;;;9.40;99.90;;;;;;4972653;28;20429;-71
2023/01/03 09:06:40;;;;;;;3.80;3.30;;;9.40;99.90;;;;;;4973490;28;20418;-72
2023/01/03 09:09:08;;;;;;;4.83;2.90;;;9.40;99.90;;;;;;4972574;28;20445;-72
2023/01/03 09:11:34;;;;;;;7.47;2.67;;;9.40;99.90;;;;;;4957068;28;20476;-72
2023/01/03 09:14:02;;;;;;;7.80;3.90;;;9.40;99.90;;;;;;4972895;28;20860;-72
2023/01/03 09:16:30;;;;;;;3.80;3.00;;;9.40;99.90;;;;;;4973003;28;20468;-72
2023/01/03 09:18:59;;;;;;;4.90;3.40;;;9.40;99.90;;;;;;4974594;28;20391;-72
2023/01/03 09:21:27;;;;;;;4.90;3.07;;;9.40;99.90;;;;;;4960656;28;20403;-72
2023/01/03 09:23:53;;;;;;;3.33;2.90;;;9.40;99.90;;;;;;4960936;28;20452;-72
2023/01/03 09:26:19;;;;;;;5.43;3.30;;;9.30;99.90;;;;;;4977534;28;20460;-72
2023/01/03 09:28:45;;;;;;;4.40;3.13;;;9.40;99.90;;;;;;4976523;28;20448;-72
2023/01/03 09:31:11;;;;;;;4.70;3.00;;;9.40;99.90;;;;;;4976565;28;20501;-72
2023/01/03 09:33:38;;;;;;;4.30;3.03;;;9.40;99.90;;;;;;4976196;28;20473;-72
2023/01/03 09:36:05;;;;;;;6.33;3.20;;;9.40;99.90;;;;;;4976260;28;20406;-72
2023/01/03 09:38:31;;;;;;;5.20;3.20;;;9.40;99.90;;;;;;4960105;28;20484;-72
2023/01/03 09:41:04;;;;;;;5.97;3.43;;;9.40;99.90;;;;;;4960195;28;20810;-72
2023/01/03 09:43:46;;;;;;;4.37;3.10;;;9.40;99.90;;;;;;4960891;28;20453;-72
2023/01/03 09:46:19;;;;;;;4.03;2.80;;;9.40;99.90;;;;;;4977372;28;20433;-72
2023/01/03 09:48:47;;;;;;;4.27;3.40;;;9.40;99.90;;;;;;4976085;28;20414;-72
2023/01/03 10:03:44;;;;;;;3.80;2.80;;;9.40;99.90;;;;;;4975850;28;20528;-72
2023/01/03 10:06:28;;;;;;;3.50;2.77;;;9.40;99.90;;;;;;4943937;28;20767;-72
2023/01/03 10:08:57;;;;;;;5.87;3.67;;;9.40;99.90;;;;;;5048690;23;20509;-71
2023/01/03 10:11:59;;;;;;;6.33;2.73;;;9.40;99.90;;;;;;4983975;28;20973;-74
2023/01/03 10:14:49;;;;;;;4.10;2.87;;;9.40;99.90;;;;;;4975806;28;20457;-74
2023/01/03 10:17:41;;;;;;;5.60;2.83;;;9.40;99.90;;;;;;4976754;28;20895;-74
2023/01/03 10:20:32;;;;;;;3.40;2.77;;;9.40;99.90;;;;;;4964930;28;20472;-75
2023/01/03 10:23:06;;;;;;;5.13;3.03;;;9.40;99.90;;;;;;4971941;28;20453;-75
2023/01/03 10:25:35;;;;;;;6.27;3.20;;;9.40;99.90;;;;;;4993060;28;20887;-75
2023/01/03 10:28:17;;;;;;;4.67;3.53;;;9.40;99.90;;;;;;4993563;28;20444;-73
2023/01/03 10:31:13;;;;;;;3.37;2.77;;;9.40;99.90;;;;;;4975416;28;20457;-72
2023/01/03 10:33:45;;;;;;;5.70;2.70;;;9.40;99.90;;;;;;4922931;28;20967;-75
2023/01/03 10:36:12;;;;;;;5.00;2.93;;;9.40;99.90;;;;;;4941245;28;20433;-75
2023/01/03 10:38:41;;;;;;;3.40;3.10;;;9.40;99.90;;;;;;4973108;28;20457;-75
2023/01/03 10:41:35;;;;;;;4.07;3.00;;;9.40;99.90;;;;;;4973170;28;20493;-75
2023/01/03 10:44:04;;;;;;;4.20;3.10;;;9.40;99.90;;;;;;4970125;28;20976;-75
2023/01/03 10:46:30;;;;;;;4.77;2.47;;;9.40;99.90;;;;;;4974426;28;20441;-75
2023/01/03 10:49:16;;;;;;;4.90;3.10;;;9.40;99.90;;;;;;4958057;28;20428;-76
2023/01/03 10:51:53;;;;;;;3.60;2.60;;;9.40;99.90;;;;;;4977732;28;20413;-75
2023/01/03 10:58:21;;;;;;;4.43;3.00;;;9.40;99.90;;;;;;4992995;28;20465;-72
2023/01/03 11:00:47;;;;;;;5.00;2.60;;;9.40;99.90;;;;;;4978052;28;20417;-70
2023/01/03 11:03:16;;;;;;;4.87;3.20;;;9.40;99.90;;;;;;4978179;28;20445;-71
2023/01/03 11:06:09;;;;;;;3.93;2.53;;;9.40;99.90;;;;;;4994392;28;20951;-69
2023/01/03 11:08:57;;;;;;;7.83;3.27;;;9.40;99.90;;;;;;4974179;28;20475;-69
2023/01/03 11:11:32;;;;;;;4.37;2.60;;;9.40;99.90;;;;;;4974444;28;20453;-70
2023/01/03 11:14:13;;;;;;;4.47;2.83;;;9.40;99.90;;;;;;4974076;28;20556;-72
2023/01/03 11:16:41;;;;;;;3.17;2.37;;;9.40;99.90;;;;;;4957783;28;20415;-71
2023/01/03 11:19:17;;;;;;;5.47;2.80;;;9.40;99.90;;;;;;4957658;28;20417;-71
2023/01/03 11:22:04;;;;;;;3.47;2.50;;;9.40;99.90;;;;;;4974872;28;20405;-71
2023/01/03 11:24:54;;;;;;;2.47;2.23;;;9.40;99.90;;;;;;4957962;28;20468;-71
2023/01/03 11:27:25;;;;;;;4.20;2.70;;;9.40;99.90;;;;;;4974657;28;20416;-71
2023/01/03 11:30:17;;;;;;;3.50;2.63;;;9.50;99.90;;;;;;4973714;28;20834;-71
2023/01/03 11:32:52;;;;;;;4.17;2.43;;;9.50;99.90;;;;;;4973319;28;20452;-71
2023/01/03 11:35:55;;;;;;;4.80;2.20;;;9.50;99.90;;;;;;4973641;28;20406;-71
2023/01/03 11:38:45;;;;;;;2.43;2.17;;;9.50;99.90;;;;;;4951235;28;20503;-71
2023/01/03 11:41:13;;;;;;;3.40;2.73;;;9.50;99.90;;;;;;4973467;28;20803;-71
2023/01/03 11:43:57;;;;;;;3.80;2.50;;;9.50;99.90;;;;;;4957279;28;20444;-71
2023/01/03 11:46:53;;;;;;;3.83;2.57;;;9.50;99.90;;;;;;4974612;28;20767;-71
2023/01/03 11:49:42;;;;;;;2.37;2.17;;;9.50;99.90;;;;;;4957258;28;20479;-72
2023/01/03 11:52:20;;;;;;;4.60;2.30;;;9.50;99.90;;;;;;4974098;28;20938;-72
2023/01/03 11:55:36;;;;;;;4.40;2.43;;;9.50;99.90;;;;;;4974160;28;20446;-72
2023/01/03 11:58:24;;;;;;;3.40;2.00;;;9.50;99.90;;;;;;4954976;28;21011;-72
2023/01/03 12:01:11;;;;;;;2.30;1.80;;;9.50;99.90;;;;;;4957164;28;20446;-71
2023/01/03 12:03:58;;;;;;;3.50;2.37;;;9.50;99.90;;;;;;4974019;28;20513;-71
2023/01/03 12:06:37;;;;;;;3.87;2.20;;;9.50;99.90;;;;;;4974035;28;20406;-71
2023/01/03 12:09:32;;;;;;;3.83;2.13;;;9.50;99.90;;;;;;4973892;28;20438;-71
2023/01/03 12:12:21;;;;;;;3.37;2.30;;;9.50;99.90;;;;;;4972884;28;20399;-71
2023/01/03 12:14:53;;;;;;;4.10;2.00;;;9.50;99.90;;;;;;4973321;28;20433;-71
2023/01/03 12:17:24;;;;;;;5.03;2.00;;;9.50;99.90;;;;;;4974444;28;20472;-71
2023/01/03 12:20:03;;;;;;;4.10;2.37;;;9.50;99.90;;;;;;4973472;28;20775;-71
2023/01/03 12:22:36;;;;;;;2.20;1.70;;;9.50;99.90;;;;;;4973400;28;20426;-71
2023/01/03 12:25:28;;;;;;;4.70;1.90;;;9.60;99.90;;;;;;4956634;28;20451;-71
2023/01/03 12:28:00;;;;;;;4.20;2.00;;;9.60;99.90;;;;;;4956934;28;20452;-71
2023/01/03 12:30:41;;;;;;;2.90;2.10;;;9.60;99.90;;;;;;4989032;28;20875;-71
2023/01/03 12:33:41;;;;;;;2.70;1.60;;;9.60;99.90;;;;;;4973614;28;20441;-73
2023/01/03 12:36:42;;;;;;;3.30;1.67;;;9.60;99.90;;;;;;4976228;28;20444;-74
2023/01/03 12:39:30;;;;;;;6.77;1.83;;;9.60;99.90;;;;;;4993739;28;20438;-73
2023/01/03 12:42:19;;;;;;;3.73;1.60;;;9.60;99.90;;;;;;4992648;28;20392;-73
2023/01/03 12:44:59;;;;;;;4.27;2.00;;;9.60;99.90;;;;;;4976520;28;20443;-74
2023/01/03 12:47:40;;;;;;;2.00;1.67;;;9.60;99.90;;;;;;4976238;28;20432;-74
2023/01/03 12:50:15;;;;;;;1.77;1.60;;;9.60;99.90;;;;;;4993769;28;20451;-73
2023/01/03 12:52:44;;;;;;;4.20;1.57;;;9.60;99.90;;;;;;4993567;28;20410;-74
2023/01/03 12:55:43;;;;;;;2.27;1.60;;;9.70;99.90;;;;;;4980625;28;20426;-73
2023/01/03 12:58:25;;;;;;;3.57;1.50;;;9.70;99.90;;;;;;4996429;28;20479;-73
2023/01/03 13:01:05;;;;;;;2.70;1.57;;;9.70;99.90;;;;;;4996619;28;20405;-73
2023/01/03 13:03:45;;;;;;;3.50;1.97;;;9.70;99.90;;;;;;4996476;28;20456;-73
2023/01/03 13:06:22;;;;;;;2.67;1.60;;;9.70;99.90;;;;;;4980356;28;20936;-74
2023/01/03 13:08:56;;;;;;;3.30;1.50;;;9.80;99.90;;;;;;4996327;28;20443;-73
2023/01/03 13:11:30;;;;;;;2.43;1.40;;;9.80;99.90;;;;;;4980190;28;20488;-74
2023/01/03 13:14:05;;;;;;;3.93;1.20;;;9.80;99.90;;;;;;4980102;28;20996;-73
2023/01/03 13:16:52;;;;;;;4.50;1.40;;;9.80;99.90;;;;;;4996308;28;20428;-73
2023/01/03 13:19:21;;;;;;;2.00;1.10;;;9.80;99.90;;;;;;4997087;28;20429;-73
2023/01/03 13:21:53;;;;;;;2.40;1.40;;;9.80;99.90;;;;;;4996942;28;20413;-74
2023/01/03 13:24:42;;;;;;;5.00;1.30;;;9.80;99.90;;;;;;4997039;28;20531;-74
2023/01/03 13:27:18;;;;;;;1.90;1.50;;;9.80;99.90;;;;;;4995945;28;20401;-73
2023/01/03 13:29:52;;;;;;;3.30;1.27;;;9.80;99.90;;;;;;4979834;28;20455;-73
2023/01/03 13:32:20;;;;;;;3.40;1.33;;;9.80;99.90;;;;;;4996935;28;20446;-73
2023/01/03 13:34:55;;;;;;;5.47;2.53;;;9.80;99.90;;;;;;4995782;28;20444;-73
2023/01/03 13:37:42;;;;;;;1.80;1.37;;;9.80;99.90;;;;;;4963925;28;20459;-73
2023/01/03 13:40:22;;;;;;;1.97;1.27;;;9.90;99.90;;;;;;4995834;28;20443;-74
2023/01/03 13:43:22;;;;;;;2.73;1.30;;;9.90;99.90;;;;;;4995567;28;20448;-74
2023/01/03 13:45:51;;;;;;;2.60;1.10;;;9.80;99.90;;;;;;4996805;28;20401;-74
2023/01/03 13:48:24;;;;;;;5.17;1.57;;;9.80;99.90;;;;;;4995609;28;20496;-74
2023/01/03 13:51:13;;;;;;;5.37;2.60;;;9.80;99.90;;;;;;4995470;28;20433;-73
2023/01/03 13:54:10;;;;;;;2.13;1.20;;;9.80;99.90;;;;;;4997150;28;20448;-73
2023/01/03 13:56:42;;;;;;;2.13;1.07;;;9.80;99.90;;;;;;4977304;28;20532;-74
2023/01/03 13:59:16;;;;;;;3.10;1.27;;;9.80;99.90;;;;;;4979430;28;20512;-73
2023/01/03 14:02:20;;;;;;;6.43;1.50;;;9.80;99.90;;;;;;4995632;28;20764;-73
2023/01/03 14:05:35;;;;;;;1.93;1.23;;;9.80;99.90;;;;;;4994244;28;20436;-73
2023/01/03 14:08:37;;;;;;;1.93;1.47;;;9.90;99.90;;;;;;4996290;28;20765;-73
2023/01/03 14:11:12;;;;;;;2.27;1.33;;;9.80;99.90;;;;;;4995261;28;20884;-73
2023/01/03 14:13:44;;;;;;;2.20;1.40;;;9.80;99.90;;;;;;4995076;28;20492;-74
2023/01/03 14:16:43;;;;;;;1.63;1.13;;;9.80;99.90;;;;;;4995176;28;20433;-74
2023/01/03 14:19:36;;;;;;;1.70;1.30;;;9.90;99.90;;;;;;4962931;28;20456;-74
2023/01/03 14:22:47;;;;;;;4.13;1.30;;;9.90;99.90;;;;;;4978890;28;20476;-74
2023/01/03 14:25:32;;;;;;;2.90;1.20;;;9.90;99.90;;;;;;4994969;28;20409;-74
2023/01/03 14:28:19;;;;;;;1.40;1.00;;;9.90;99.90;;;;;;4978671;28;20405;-74
2023/01/03 14:30:56;;;;;;;1.10;0.90;;;9.90;99.90;;;;;;4995859;28;20412;-74
2023/01/03 14:33:40;;;;;;;1.80;1.20;;;9.90;99.90;;;;;;4978819;28;20527;-74
2023/01/03 14:36:13;;;;;;;1.33;1.20;;;9.90;99.90;;;;;;4995981;28;20391;-73
2023/01/03 14:38:55;;;;;;;1.70;1.40;;;9.90;99.90;;;;;;4978402;28;20554;-73
2023/01/03 14:41:37;;;;;;;1.50;1.10;;;9.90;99.90;;;;;;4978543;28;20417;-74
2023/01/03 14:44:05;;;;;;;2.00;1.33;;;9.90;99.90;;;;;;4994511;28;20936;-74
2023/01/03 14:46:35;;;;;;;1.40;1.30;;;9.90;99.90;;;;;;4996024;28;20405;-74